createdAt,value
2017-06-12T00:01:37.859Z,72.00
2017-06-12T00:04:06.237Z,71.90
2017-06-12T00:06:34.671Z,71.00
2017-06-12T00:09:02.689Z,72.50
2017-06-12T00:11:30.267Z,77.00
2017-06-12T00:13:58.218Z,75.70
2017-06-12T00:16:25.777Z,76.30
2017-06-12T00:18:53.300Z,74.60
2017-06-12T00:21:21.614Z,73.70
2017-06-12T00:23:49.180Z,72.60
2017-06-12T00:26:18.091Z,72.50
2017-06-12T00:28:45.613Z,72.70
2017-06-12T00:31:13.165Z,72.40
2017-06-12T00:33:41.027Z,72.50
2017-06-12T00:36:09.374Z,72.60
2017-06-12T00:38:37.753Z,72.70
2017-06-12T00:41:05.270Z,73.00
2017-06-12T00:43:32.804Z,73.00
2017-06-12T00:46:00.370Z,73.40
2017-06-12T00:48:27.901Z,73.40
2017-06-12T00:50:55.423Z,73.50
2017-06-12T00:53:22.969Z,73.90
2017-06-12T00:55:50.475Z,74.20
2017-06-12T00:58:17.996Z,74.60
2017-06-12T01:00:45.540Z,74.90
2017-06-12T01:03:13.079Z,75.40
2017-06-12T01:05:40.594Z,75.50
2017-06-12T01:08:08.140Z,76.10
2017-06-12T01:10:35.677Z,76.10
2017-06-12T01:13:03.189Z,76.00
2017-06-12T01:15:31.865Z,76.20
2017-06-12T01:17:59.382Z,76.20
2017-06-12T01:20:26.909Z,76.40
2017-06-12T01:22:54.482Z,76.70
2017-06-12T01:25:22.009Z,76.70
2017-06-12T01:27:50.320Z,76.70
2017-06-12T01:30:17.888Z,77.10
2017-06-12T01:32:45.402Z,77.30
2017-06-12T01:35:12.921Z,77.40
2017-06-12T01:37:40.459Z,78.00
2017-06-12T01:40:07.981Z,78.20
2017-06-12T01:42:35.488Z,78.40
2017-06-12T01:45:03.028Z,79.00
2017-06-12T01:47:30.548Z,79.50
2017-06-12T01:49:58.087Z,79.70
2017-06-12T01:52:25.920Z,79.90
2017-06-12T01:54:53.431Z,80.30
2017-06-12T01:57:21.715Z,81.50
2017-06-12T01:59:50.386Z,81.20
2017-06-12T02:02:18.672Z,82.30
2017-06-12T02:04:46.193Z,81.40
2017-06-12T02:07:13.726Z,82.00
2017-06-12T02:09:41.243Z,82.00
2017-06-12T02:12:09.519Z,83.90
2017-06-12T02:14:37.345Z,83.20
2017-06-12T02:17:04.871Z,85.30
2017-06-12T02:19:32.396Z,86.00
2017-06-12T02:21:59.945Z,86.30
2017-06-12T02:24:27.463Z,87.30
2017-06-12T02:26:54.978Z,88.50
2017-06-12T02:29:22.559Z,89.00
2017-06-12T02:31:50.079Z,89.80
2017-06-12T02:34:17.603Z,90.10
2017-06-12T02:36:46.383Z,90.40
2017-06-12T02:39:13.933Z,90.40
2017-06-12T02:41:41.464Z,90.60
2017-06-12T02:44:09.787Z,90.70
2017-06-12T02:46:37.318Z,90.70
2017-06-12T02:49:04.834Z,90.70
2017-06-12T02:51:32.363Z,90.90
2017-06-12T02:53:59.904Z,90.90
2017-06-12T02:56:27.435Z,91.20
2017-06-12T02:58:56.049Z,91.20
2017-06-12T03:01:23.568Z,91.20
2017-06-12T03:03:51.864Z,91.20
2017-06-12T03:06:19.655Z,91.20
2017-06-12T03:08:47.187Z,91.50
2017-06-12T03:11:15.459Z,91.70
2017-06-12T03:13:43.776Z,91.90
2017-06-12T03:16:11.294Z,91.90
2017-06-12T03:18:38.824Z,92.50
2017-06-12T03:21:06.375Z,92.70
2017-06-12T03:23:33.882Z,93.00
2017-06-12T03:26:01.399Z,93.20
2017-06-12T03:28:28.950Z,93.20
2017-06-12T03:30:56.481Z,93.40
2017-06-12T03:33:24.021Z,93.50
2017-06-12T03:35:51.859Z,93.50
2017-06-12T03:38:20.161Z,93.30
2017-06-12T03:40:47.674Z,93.50
2017-06-12T03:43:15.234Z,93.60
2017-06-12T03:45:42.743Z,93.60
2017-06-12T03:48:10.264Z,93.60
2017-06-12T03:50:37.805Z,93.60
2017-06-12T03:53:05.322Z,93.60
2017-06-12T03:55:32.835Z,93.40
2017-06-12T03:58:00.399Z,93.30
2017-06-12T04:00:27.917Z,93.20
2017-06-12T04:02:55.449Z,93.10
2017-06-12T04:05:23.001Z,93.00
2017-06-12T04:07:50.546Z,92.70
2017-06-12T04:10:18.127Z,92.70
2017-06-12T04:12:45.667Z,92.70
2017-06-12T04:15:13.171Z,92.60
2017-06-12T04:17:40.700Z,92.60
2017-06-12T04:20:08.248Z,92.70
2017-06-12T04:22:35.769Z,92.50
2017-06-12T04:25:03.304Z,92.20
2017-06-12T04:27:30.863Z,90.30
2017-06-12T04:29:58.391Z,87.40
2017-06-12T04:32:28.435Z,84.20
2017-06-12T04:34:55.980Z,81.30
2017-06-12T04:37:23.533Z,78.40
2017-06-12T04:39:51.053Z,77.00
2017-06-12T04:42:18.595Z,76.70
2017-06-12T04:44:46.107Z,74.70
2017-06-12T04:47:13.631Z,75.10
2017-06-12T04:49:41.170Z,74.40
2017-06-12T04:52:08.694Z,75.60
2017-06-12T04:54:36.217Z,75.80
2017-06-12T04:57:04.556Z,76.00
2017-06-12T04:59:32.086Z,75.90
2017-06-12T05:01:59.599Z,76.30
2017-06-12T05:04:27.155Z,76.30
2017-06-12T05:06:54.677Z,76.60
2017-06-12T05:09:22.201Z,77.40
2017-06-12T05:11:50.660Z,77.50
2017-06-12T05:14:18.181Z,77.00
2017-06-12T05:16:45.696Z,75.60
2017-06-12T05:19:13.257Z,74.00
2017-06-12T05:21:41.536Z,73.20
2017-06-12T05:24:09.811Z,69.60
2017-06-12T05:26:37.369Z,69.60
2017-06-12T05:29:04.896Z,68.90
2017-06-12T05:31:32.429Z,65.70
2017-06-12T05:33:59.978Z,64.50
2017-06-12T05:36:27.507Z,63.30
2017-06-12T05:38:55.775Z,62.50
2017-06-12T05:41:24.105Z,62.10
2017-06-12T05:43:51.626Z,62.10
2017-06-12T05:46:19.135Z,60.90
2017-06-12T05:48:46.699Z,62.40
2017-06-12T05:51:14.220Z,60.50
2017-06-12T05:53:41.735Z,55.70
2017-06-12T05:56:10.065Z,56.10
2017-06-12T05:58:37.584Z,56.10
2017-06-12T06:01:05.152Z,56.20
2017-06-12T06:03:32.708Z,54.80
2017-06-12T06:06:00.222Z,54.60
2017-06-12T06:08:27.756Z,53.70
2017-06-12T06:10:55.308Z,52.90
2017-06-12T06:13:22.829Z,52.10
2017-06-12T06:15:51.116Z,51.00
2017-06-12T06:18:18.695Z,50.90
2017-06-12T06:20:46.231Z,49.80
2017-06-12T06:23:14.507Z,51.20
2017-06-12T06:25:42.816Z,49.00
2017-06-12T06:28:10.340Z,49.00
2017-06-12T06:30:37.878Z,49.10
2017-06-12T06:33:05.418Z,48.80
2017-06-12T06:35:32.957Z,49.00
2017-06-12T06:38:00.475Z,50.10
2017-06-12T06:40:28.788Z,50.90
2017-06-12T06:42:56.319Z,50.80
2017-06-12T06:45:23.843Z,51.00
2017-06-12T06:47:51.734Z,50.50
2017-06-12T06:50:20.090Z,48.50
2017-06-12T06:52:47.604Z,48.40
2017-06-12T06:55:15.159Z,47.80
2017-06-12T06:57:42.691Z,47.00
2017-06-12T07:00:10.203Z,47.00
2017-06-12T07:02:37.743Z,46.30
2017-06-12T07:05:05.280Z,46.70
2017-06-12T07:07:32.793Z,48.40
2017-06-12T07:10:00.338Z,48.10
2017-06-12T07:12:28.329Z,46.90
2017-06-12T07:14:56.786Z,45.50
2017-06-12T07:17:24.463Z,45.10
2017-06-12T07:19:52.935Z,43.90
2017-06-12T07:22:20.697Z,44.20
2017-06-12T07:24:48.269Z,44.60
2017-06-12T07:27:15.899Z,43.70
2017-06-12T07:29:43.586Z,43.80
2017-06-12T07:32:11.243Z,44.10
2017-06-12T07:34:38.941Z,44.80
2017-06-12T07:37:06.477Z,44.20
2017-06-12T07:39:34.010Z,44.10
2017-06-12T07:42:01.648Z,44.00
2017-06-12T07:44:29.183Z,44.00
2017-06-12T07:46:57.487Z,43.50
2017-06-12T07:49:25.044Z,43.30
2017-06-12T07:51:52.566Z,43.30
2017-06-12T07:54:20.095Z,44.10
2017-06-12T07:56:47.646Z,43.70
2017-06-12T07:59:15.169Z,45.60
2017-06-12T08:01:42.765Z,44.70
2017-06-12T08:04:10.299Z,44.30
2017-06-12T08:06:37.824Z,43.40
2017-06-12T08:09:06.491Z,42.50
2017-06-12T08:11:34.485Z,43.30
2017-06-12T08:14:02.973Z,43.10
2017-06-12T08:16:30.512Z,43.10
2017-06-12T08:18:58.073Z,42.60
2017-06-12T08:21:25.632Z,43.30
2017-06-12T08:23:53.162Z,44.90
2017-06-12T08:26:21.065Z,44.90
2017-06-12T08:28:48.692Z,44.50
2017-06-12T08:31:16.271Z,44.00
2017-06-12T08:33:43.849Z,45.70
2017-06-12T08:36:12.162Z,46.40
2017-06-12T08:38:39.693Z,46.30
2017-06-12T08:41:08.875Z,47.50
2017-06-12T08:43:36.426Z,47.50
2017-06-12T08:46:03.959Z,46.00
2017-06-12T08:48:31.517Z,47.00
2017-06-12T08:50:59.078Z,46.80
2017-06-12T08:53:26.608Z,45.60
2017-06-12T08:55:54.151Z,46.30
2017-06-12T08:58:22.564Z,45.80
2017-06-12T09:00:50.096Z,46.70
2017-06-12T09:03:17.932Z,46.70
2017-06-12T09:05:46.696Z,47.30
2017-06-12T09:08:14.225Z,45.10
2017-06-12T09:10:41.772Z,44.80
2017-06-12T09:13:09.303Z,44.40
2017-06-12T09:15:36.830Z,44.90
2017-06-12T09:18:04.378Z,45.90
2017-06-12T09:20:32.441Z,45.70
2017-06-12T09:22:59.985Z,46.20
2017-06-12T09:25:27.537Z,44.90
2017-06-12T09:27:55.058Z,44.50
2017-06-12T09:30:22.580Z,43.30
2017-06-12T09:32:50.123Z,44.30
2017-06-12T09:35:17.649Z,45.50
2017-06-12T09:37:45.222Z,45.30
2017-06-12T09:40:12.791Z,44.40
2017-06-12T09:42:40.328Z,46.30
2017-06-12T09:45:08.657Z,44.00
2017-06-12T09:47:36.212Z,43.90
2017-06-12T09:50:03.736Z,43.00
2017-06-12T09:52:31.276Z,44.00
2017-06-12T09:54:58.846Z,44.10
2017-06-12T09:57:26.402Z,45.10
2017-06-12T09:59:53.942Z,44.30
2017-06-12T10:02:21.503Z,44.10
2017-06-12T10:04:49.024Z,44.30
2017-06-12T10:07:16.553Z,44.40
2017-06-12T10:09:44.104Z,45.00
2017-06-12T10:12:11.670Z,43.00
2017-06-12T10:14:39.241Z,43.20
2017-06-12T10:17:07.046Z,43.20
2017-06-12T10:19:34.572Z,43.20
2017-06-12T10:22:02.137Z,42.80
2017-06-12T10:24:30.157Z,42.30
2017-06-12T10:26:58.489Z,42.30
2017-06-12T10:29:26.015Z,42.30
2017-06-12T10:31:53.556Z,43.80
2017-06-12T10:34:21.109Z,43.00
2017-06-12T10:36:48.638Z,43.10
2017-06-12T10:39:16.175Z,41.20
2017-06-12T10:41:43.995Z,41.60
2017-06-12T10:44:13.391Z,42.00
2017-06-12T10:46:40.994Z,41.90
2017-06-12T10:49:08.553Z,42.00
2017-06-12T10:51:36.080Z,41.10
2017-06-12T10:54:04.379Z,42.30
2017-06-12T10:56:31.949Z,42.20
2017-06-12T10:58:59.478Z,43.50
2017-06-12T11:01:27.790Z,40.70
2017-06-12T11:03:55.433Z,40.60
2017-06-12T11:06:22.987Z,43.00
2017-06-12T11:08:50.516Z,42.00
2017-06-12T11:11:18.352Z,42.00
2017-06-12T11:13:45.871Z,41.30
2017-06-12T11:16:13.497Z,41.60
2017-06-12T11:18:42.100Z,38.90
2017-06-12T11:21:09.629Z,38.90
2017-06-12T11:23:37.160Z,38.90
2017-06-12T11:26:04.728Z,38.90
2017-06-12T11:28:37.979Z,38.70
2017-06-12T11:31:05.767Z,39.00
2017-06-12T11:33:34.309Z,39.00
2017-06-12T11:36:01.832Z,38.10
2017-06-12T11:38:29.836Z,41.00
2017-06-12T11:40:58.415Z,38.80
2017-06-12T11:43:25.955Z,38.80
2017-06-12T11:45:53.502Z,39.30
2017-06-12T11:48:21.824Z,37.70
2017-06-12T11:50:49.353Z,37.50
2017-06-12T11:53:16.918Z,39.30
2017-06-12T11:55:44.453Z,37.90
2017-06-12T11:58:11.989Z,37.20
2017-06-12T12:00:39.629Z,38.30
2017-06-12T12:03:07.159Z,36.50
2017-06-12T12:05:35.449Z,39.00
2017-06-12T12:08:03.454Z,38.90
2017-06-12T12:10:30.974Z,37.50
2017-06-12T12:12:59.268Z,36.60
2017-06-12T12:15:27.111Z,36.60
2017-06-12T12:17:55.432Z,36.80
2017-06-12T12:20:22.952Z,36.80
2017-06-12T12:22:50.772Z,36.80
2017-06-12T12:25:18.310Z,37.50
2017-06-12T12:27:45.831Z,36.30
2017-06-12T12:30:14.529Z,34.80
2017-06-12T12:32:42.336Z,34.80
2017-06-12T12:35:10.009Z,36.40
2017-06-12T12:37:38.391Z,36.80
2017-06-12T12:40:05.905Z,36.70
2017-06-12T12:42:33.428Z,33.90
2017-06-12T12:45:00.984Z,33.30
2017-06-12T12:47:28.508Z,36.10
2017-06-12T12:49:56.055Z,34.30
2017-06-12T12:52:23.631Z,34.70
2017-06-12T12:54:51.172Z,33.20
2017-06-12T12:57:18.702Z,31.30
2017-06-12T12:59:46.250Z,31.80
2017-06-12T13:02:13.766Z,31.50
2017-06-12T13:04:41.338Z,31.70
2017-06-12T13:07:15.030Z,31.30
2017-06-12T13:09:42.992Z,31.90
2017-06-12T13:12:10.524Z,30.40
2017-06-12T13:14:39.250Z,30.70
2017-06-12T13:17:11.337Z,31.00
2017-06-12T13:19:39.257Z,31.30
2017-06-12T13:22:06.784Z,30.60
2017-06-12T13:24:35.992Z,31.70
2017-06-12T13:27:03.549Z,32.00
2017-06-12T13:29:31.103Z,32.00
2017-06-12T13:31:58.623Z,31.20
2017-06-12T13:34:26.430Z,31.00
2017-06-12T13:36:54.706Z,30.30
2017-06-12T13:39:22.321Z,30.30
2017-06-12T13:41:49.898Z,30.90
2017-06-12T13:44:17.427Z,30.50
2017-06-12T13:46:45.680Z,31.50
2017-06-12T13:49:14.061Z,31.00
2017-06-12T13:51:41.609Z,30.40
2017-06-12T13:54:09.138Z,31.30
2017-06-12T13:56:36.687Z,33.00
2017-06-12T13:59:04.227Z,32.30
2017-06-12T14:01:31.777Z,31.40
2017-06-12T14:03:59.337Z,29.90
2017-06-12T14:06:26.869Z,29.50
2017-06-12T14:08:54.416Z,28.40
2017-06-12T14:11:22.026Z,29.10
2017-06-12T14:13:49.583Z,29.90
2017-06-12T14:16:17.106Z,32.10
2017-06-12T14:18:44.933Z,32.20
2017-06-12T14:21:12.482Z,33.00
2017-06-12T14:23:40.010Z,32.90
2017-06-12T14:26:07.560Z,33.50
2017-06-12T14:28:35.105Z,32.30
2017-06-12T14:31:02.632Z,32.10
2017-06-12T14:33:30.436Z,30.80
2017-06-12T14:35:57.965Z,31.80
2017-06-12T14:38:26.248Z,32.00
2017-06-12T14:40:54.572Z,32.20
2017-06-12T14:43:22.112Z,32.20
2017-06-12T14:45:49.673Z,30.30
2017-06-12T14:48:17.227Z,30.90
2017-06-12T14:50:44.751Z,31.10
2017-06-12T14:53:13.047Z,32.60
2017-06-12T14:55:40.616Z,32.40
2017-06-12T14:58:08.156Z,31.80
2017-06-12T15:00:37.008Z,30.70
2017-06-12T15:03:04.570Z,31.50
2017-06-12T15:05:32.093Z,31.30
2017-06-12T15:07:59.635Z,31.50
2017-06-12T15:10:27.174Z,32.60
2017-06-12T15:12:54.704Z,32.40
2017-06-12T15:15:22.215Z,32.70
2017-06-12T15:17:50.167Z,32.50
2017-06-12T15:20:18.454Z,32.70
2017-06-12T15:22:45.972Z,32.70
2017-06-12T15:25:13.537Z,33.90
2017-06-12T15:27:41.080Z,31.60
2017-06-12T15:30:08.612Z,31.20
2017-06-12T15:32:36.170Z,32.20
2017-06-12T15:35:03.713Z,33.30
2017-06-12T15:37:31.360Z,33.60
2017-06-12T15:39:58.911Z,33.70
2017-06-12T15:42:26.441Z,33.00
2017-06-12T15:44:53.981Z,33.70
2017-06-12T15:47:21.815Z,32.70
2017-06-12T15:49:49.533Z,33.60
2017-06-12T15:52:17.064Z,34.30
2017-06-12T15:54:44.885Z,35.80
2017-06-12T15:57:13.201Z,33.60
2017-06-12T15:59:40.722Z,33.50
2017-06-12T16:02:08.537Z,34.10
2017-06-12T16:04:36.092Z,35.70
2017-06-12T16:07:03.621Z,34.70
2017-06-12T16:09:31.205Z,35.30
2017-06-12T16:11:58.862Z,36.50
2017-06-12T16:14:26.476Z,37.00
2017-06-12T16:16:54.128Z,37.10
2017-06-12T16:19:21.678Z,37.20
2017-06-12T16:21:49.257Z,37.10
2017-06-12T16:24:17.149Z,38.40
2017-06-12T16:26:44.774Z,39.20
2017-06-12T16:29:12.455Z,40.00
2017-06-12T16:31:40.342Z,40.50
2017-06-12T16:34:08.189Z,41.30
2017-06-12T16:36:35.709Z,40.00
2017-06-12T16:39:03.292Z,37.50
2017-06-12T16:41:31.449Z,35.30
2017-06-12T16:43:59.451Z,36.80
2017-06-12T16:46:27.521Z,36.40
2017-06-12T16:48:55.171Z,36.40
2017-06-12T16:51:22.798Z,36.60
2017-06-12T16:53:50.384Z,36.00
2017-06-12T16:56:17.918Z,35.40
2017-06-12T16:58:45.453Z,34.40
2017-06-12T17:01:13.024Z,35.90
2017-06-12T17:03:40.734Z,35.20
2017-06-12T17:06:08.467Z,35.10
2017-06-12T17:08:36.143Z,33.90
2017-06-12T17:11:05.589Z,34.40
2017-06-12T17:13:33.778Z,33.30
2017-06-12T17:16:02.644Z,33.40
2017-06-12T17:18:30.258Z,34.60
2017-06-12T17:20:58.047Z,34.00
2017-06-12T17:23:25.972Z,35.90
2017-06-12T17:25:55.185Z,36.50
2017-06-12T17:28:23.119Z,38.20
2017-06-12T17:30:51.185Z,37.70
2017-06-12T17:33:18.760Z,37.40
2017-06-12T17:35:46.346Z,38.50
2017-06-12T17:38:13.948Z,40.90
2017-06-12T17:40:42.249Z,41.90
2017-06-12T17:43:09.772Z,41.80
2017-06-12T17:45:37.345Z,42.80
2017-06-12T17:48:06.174Z,42.80
2017-06-12T17:50:33.702Z,42.80
2017-06-12T17:53:01.569Z,42.50
2017-06-12T17:55:29.102Z,42.60
2017-06-12T17:57:57.345Z,44.20
2017-06-12T18:00:24.909Z,44.20
2017-06-12T18:02:52.460Z,43.60
2017-06-12T18:05:19.987Z,45.00
2017-06-12T18:07:47.547Z,45.30
2017-06-12T18:10:15.070Z,45.10
2017-06-12T18:12:42.592Z,45.50
2017-06-12T18:15:10.389Z,45.00
2017-06-12T18:17:38.450Z,45.50
2017-06-12T18:20:06.001Z,46.30
2017-06-12T18:22:33.571Z,47.70
2017-06-12T18:25:01.122Z,47.40
2017-06-12T18:27:28.705Z,47.30
2017-06-12T18:29:56.263Z,48.50
2017-06-12T18:32:24.147Z,49.00
2017-06-12T18:34:52.442Z,50.10
2017-06-12T18:37:19.965Z,50.00
2017-06-12T18:39:47.532Z,51.10
2017-06-12T18:42:15.060Z,51.10
2017-06-12T18:44:42.591Z,51.40
2017-06-12T18:47:10.444Z,51.70
2017-06-12T18:49:38.018Z,52.30
2017-06-12T18:52:05.561Z,52.10
2017-06-12T18:54:33.168Z,52.30
2017-06-12T18:57:00.717Z,52.80
2017-06-12T18:59:28.247Z,53.60
2017-06-12T19:01:55.807Z,53.40
2017-06-12T19:04:23.341Z,53.70
2017-06-12T19:06:50.882Z,54.10
2017-06-12T19:09:18.463Z,54.20
2017-06-12T19:11:45.997Z,54.20
2017-06-12T19:14:13.517Z,54.40
2017-06-12T19:16:41.099Z,55.00
2017-06-12T19:19:08.725Z,55.00
2017-06-12T19:21:37.194Z,56.20
2017-06-12T19:24:05.147Z,56.00
2017-06-12T19:26:32.781Z,56.40
2017-06-12T19:29:00.347Z,57.50
2017-06-12T19:31:27.944Z,57.30
2017-06-12T19:33:55.579Z,56.20
2017-06-12T19:36:23.126Z,57.00
2017-06-12T19:38:50.727Z,57.50
2017-06-12T19:41:18.419Z,58.00
2017-06-12T19:43:46.025Z,58.30
2017-06-12T19:46:13.642Z,58.80
2017-06-12T19:48:41.263Z,58.70
2017-06-12T19:51:08.853Z,58.70
2017-06-12T19:53:36.502Z,58.70
2017-06-12T19:56:04.385Z,59.30
2017-06-12T19:58:32.330Z,58.50
2017-06-12T20:00:59.880Z,59.00
2017-06-12T20:03:28.240Z,59.90
2017-06-12T20:05:56.111Z,59.90
2017-06-12T20:08:23.635Z,59.60
2017-06-12T20:10:51.994Z,60.30
2017-06-12T20:13:19.580Z,61.20
2017-06-12T20:15:47.165Z,60.90
2017-06-12T20:18:14.756Z,61.60
2017-06-12T20:20:42.668Z,62.60
2017-06-12T20:23:10.225Z,62.30
2017-06-12T20:25:37.827Z,62.50
2017-06-12T20:28:05.778Z,62.80
2017-06-12T20:30:33.340Z,63.00
2017-06-12T20:33:00.893Z,63.10
2017-06-12T20:35:29.735Z,63.60
2017-06-12T20:37:57.304Z,63.90
2017-06-12T20:40:24.920Z,64.90
2017-06-12T20:42:52.541Z,64.60
2017-06-12T20:45:20.146Z,65.20
2017-06-12T20:47:47.693Z,65.70
2017-06-12T20:50:16.041Z,65.80
2017-06-12T20:52:43.583Z,65.70
2017-06-12T20:55:11.133Z,66.10
2017-06-12T20:57:38.813Z,66.30
2017-06-12T21:00:06.400Z,66.60
2017-06-12T21:02:33.932Z,66.50
2017-06-12T21:05:02.000Z,66.50
2017-06-12T21:07:29.626Z,67.40
2017-06-12T21:09:57.161Z,68.30
2017-06-12T21:12:24.779Z,68.40
2017-06-12T21:14:52.348Z,69.00
2017-06-12T21:17:20.286Z,70.20
2017-06-12T21:19:48.150Z,71.00
2017-06-12T21:22:15.688Z,71.50
2017-06-12T21:24:43.218Z,71.20
2017-06-12T21:27:10.860Z,71.90
2017-06-12T21:29:38.456Z,73.00
2017-06-12T21:32:06.114Z,71.50
2017-06-12T21:34:33.953Z,71.90
2017-06-12T21:37:01.535Z,72.40
2017-06-12T21:39:29.868Z,73.10
2017-06-12T21:41:57.687Z,73.00
2017-06-12T21:44:25.293Z,73.50
2017-06-12T21:46:52.841Z,74.50
2017-06-12T21:49:22.038Z,74.80
2017-06-12T21:51:49.785Z,75.00
2017-06-12T21:54:17.325Z,74.60
2017-06-12T21:56:44.887Z,74.20
2017-06-12T21:59:13.170Z,75.20
2017-06-12T22:01:41.496Z,75.10
2017-06-12T22:04:09.081Z,75.00
2017-06-12T22:06:36.635Z,75.40
2017-06-12T22:09:04.160Z,75.50
2017-06-12T22:11:31.734Z,75.60
2017-06-12T22:13:59.278Z,76.00
2017-06-12T22:16:26.823Z,75.80
2017-06-12T22:18:54.633Z,76.10
2017-06-12T22:21:22.168Z,76.30
2017-06-12T22:23:49.690Z,76.40
2017-06-12T22:26:17.257Z,77.40
2017-06-12T22:28:44.798Z,77.60
2017-06-12T22:31:12.359Z,77.40
2017-06-12T22:33:40.682Z,77.50
2017-06-12T22:36:08.252Z,77.40
2017-06-12T22:38:35.901Z,77.80
2017-06-12T22:41:03.925Z,78.00
2017-06-12T22:43:31.492Z,77.50
2017-06-12T22:45:59.963Z,78.70
2017-06-12T22:48:27.687Z,78.70
2017-06-12T22:50:55.406Z,78.30
2017-06-12T22:53:22.945Z,79.20
2017-06-12T22:55:51.300Z,78.90
2017-06-12T22:58:18.846Z,78.80
2017-06-12T23:00:46.378Z,80.00
2017-06-12T23:03:13.993Z,79.70
2017-06-12T23:05:41.579Z,80.10
2017-06-12T23:08:09.135Z,80.70
2017-06-12T23:10:36.996Z,80.50
2017-06-12T23:13:05.381Z,80.40
2017-06-12T23:15:32.902Z,80.30
2017-06-12T23:18:00.472Z,80.40
2017-06-12T23:20:28.170Z,80.50
2017-06-12T23:23:03.281Z,81.10
2017-06-12T23:25:45.681Z,81.30
2017-06-12T23:28:13.278Z,81.30
2017-06-12T23:30:40.809Z,80.90
2017-06-12T23:33:09.126Z,81.00
2017-06-12T23:35:36.704Z,80.90
2017-06-12T23:38:04.241Z,81.20
2017-06-12T23:40:31.773Z,80.90
2017-06-12T23:43:00.091Z,81.10
2017-06-12T23:45:27.617Z,81.00
2017-06-12T23:47:55.240Z,80.90
2017-06-12T23:50:24.400Z,81.00
2017-06-12T23:52:51.931Z,81.00
2017-06-12T23:55:20.209Z,81.80
2017-06-12T23:57:47.791Z,81.80
